Time;durP1;ratioP1;P1;durP2;ratioP2;P2;SDS_P1;SDS_P2;PMS_P1;PMS_P2;Temp;Humidity;BMP_temperature;BMP_pressure;BME280_temperature;BME280_humidity;BME280_pressure;Samples;Min_cycle;Max_cycle;Signal;HPM_P1;HPM_P2
2021/11/26 00:00:17;;;;;;;20.63;7.70;;;;;;;0.07;93.23;97139.44;5084025;28;20048;-63
2021/11/26 00:02:44;;;;;;;15.02;7.72;;;;;;;0.12;92.50;97141.25;5084429;28;20063;-63
2021/11/26 00:05:11;;;;;;;22.88;8.88;;;;;;;-0.02;92.19;97122.19;5083149;28;20423;-64
2021/11/26 00:07:37;;;;;;;19.83;9.40;;;;;;;0.16;92.96;97137.63;5084719;28;20051;-64
2021/11/26 00:10:04;;;;;;;18.83;8.77;;;;;;;-0.71;93.49;96999.97;5084869;28;20058;-63
2021/11/26 00:12:32;;;;;;;19.95;8.73;;;;;;;-0.27;93.92;97060.09;5082986;28;20976;-63
2021/11/26 00:17:32;;;;;;;22.73;9.25;;;;;;;0.14;94.32;97126.25;5084600;28;20434;-63
2021/11/26 00:19:59;;;;;;;23.15;8.30;;;;;;;-0.55;94.46;97028.47;5085066;28;20139;-65
2021/11/26 00:22:26;;;;;;;24.77;10.05;;;;;;;0.04;95.11;97213.56;5084610;28;20043;-64
2021/11/26 00:24:54;;;;;;;18.65;8.70;;;;;;;-0.08;95.17;97123.41;5083254;28;20056;-63
2021/11/26 00:27:21;;;;;;;19.08;8.10;;;;;;;-0.07;96.27;97114.13;5083336;28;20055;-63
2021/11/26 00:29:48;;;;;;;22.85;8.32;;;;;;;-2.80;95.92;96659.34;5084043;28;20044;-63
2021/11/26 00:32:14;;;;;;;22.17;8.43;;;;;;;0.13;95.74;97100.13;5083452;28;20056;-63
2021/11/26 00:34:41;;;;;;;16.08;7.88;;;;;;;-0.38;95.28;97012.41;5084406;28;20048;-63
2021/11/26 00:37:08;;;;;;;14.30;6.55;;;;;;;-0.33;94.71;97050.38;5071844;28;20515;-64
2021/11/26 00:39:35;;;;;;;15.98;6.45;;;;;;;-0.35;93.85;97014.53;5064197;28;20057;-63
2021/11/26 00:42:02;;;;;;;13.40;6.07;;;;;;;0.00;94.27;97090.84;5064161;28;20052;-63
2021/11/26 00:44:29;;;;;;;12.77;6.28;;;;;;;0.00;94.66;97071.78;5063989;28;20044;-64
2021/11/26 00:46:55;;;;;;;18.13;6.55;;;;;;;0.06;94.64;97075.22;5064247;28;20083;-64
2021/11/26 00:49:22;;;;;;;10.82;5.80;;;;;;;0.05;94.25;97089.94;5063926;28;20083;-63
2021/11/26 00:51:49;;;;;;;15.48;6.55;;;;;;;0.04;94.29;97088.31;5064309;28;20044;-63
2021/11/26 00:54:16;;;;;;;16.70;5.97;;;;;;;-0.06;94.91;97083.06;5063700;28;20534;-63
2021/11/26 00:56:42;;;;;;;16.25;7.35;;;;;;;-0.10;94.52;97060.28;5063913;28;20056;-63
2021/11/26 00:59:10;;;;;;;14.00;5.85;;;;;;;0.16;93.38;97079.66;5064023;28;20466;-63
2021/11/26 01:01:36;;;;;;;12.63;5.40;;;;;;;0.15;93.76;97073.41;5064534;28;20053;-64
2021/11/26 01:04:04;;;;;;;14.55;6.03;;;;;;;0.19;92.58;97074.38;5062723;28;20052;-63
2021/11/26 01:06:32;;;;;;;11.75;5.55;;;;;;;0.16;92.90;97064.09;5064446;28;20507;-65
2021/11/26 01:08:59;;;;;;;10.85;4.85;;;;;;;0.15;93.54;97070.69;5064201;28;20168;-63
2021/11/26 01:11:26;;;;;;;13.93;5.53;;;;;;;0.01;94.78;97083.47;5064243;28;20329;-62
2021/11/26 01:13:53;;;;;;;14.82;5.60;;;;;;;-0.68;94.74;96972.97;5062712;28;20075;-63
2021/11/26 01:16:20;;;;;;;13.95;5.97;;;;;;;-0.03;94.90;97055.22;5064287;28;20045;-63
2021/11/26 01:18:46;;;;;;;15.07;5.90;;;;;;;-0.04;94.54;97049.00;5066236;28;20127;-63
2021/11/26 01:21:13;;;;;;;11.57;4.93;;;;;;;-0.23;93.93;97002.03;5067968;28;20142;-64
2021/11/26 01:23:40;;;;;;;13.73;5.20;;;;;;;0.07;93.45;97046.88;5067476;28;20570;-63
2021/11/26 01:26:07;;;;;;;17.15;6.28;;;;;;;0.11;91.49;97045.19;5066151;28;20066;-62
2021/11/26 01:28:34;;;;;;;15.23;6.78;;;;;;;0.02;91.31;97040.75;5067165;28;20052;-64
2021/11/26 01:31:01;;;;;;;23.55;7.90;;;;;;;-0.05;91.33;97041.94;5065959;28;20060;-63
2021/11/26 01:33:28;;;;;;;19.45;7.80;;;;;;;-0.08;92.87;97036.31;5067581;28;20053;-63
2021/11/26 01:35:55;;;;;;;19.30;7.22;;;;;;;-0.05;92.05;97022.09;5069820;28;20055;-63
2021/11/26 01:38:22;;;;;;;15.23;7.50;;;;;;;-0.54;90.79;96989.31;5087349;28;20048;-63
2021/11/26 01:40:49;;;;;;;17.58;6.50;;;;;;;0.01;91.34;97012.69;5088162;28;20086;-63
2021/11/26 01:43:20;;;;;;;19.95;6.65;;;;;;;-0.05;92.54;97013.91;5088004;28;20062;-64
2021/11/26 01:45:54;;;;;;;15.30;7.35;;;;;;;-0.14;93.61;96993.94;5087689;28;20442;-63
2021/11/26 01:48:23;;;;;;;14.60;6.10;;;;;;;-0.30;93.81;96968.16;5087414;28;20059;-63
2021/11/26 01:50:53;;;;;;;13.18;5.75;;;;;;;-0.06;94.07;96995.97;5086378;28;20184;-63
2021/11/26 01:53:20;;;;;;;12.15;4.80;;;;;;;-0.08;95.31;96987.31;5085957;27;20148;-63
2021/11/26 01:55:47;;;;;;;12.15;4.82;;;;;;;-0.09;95.54;96975.59;5087210;28;20048;-63
2021/11/26 01:58:14;;;;;;;13.82;5.63;;;;;;;-0.02;95.04;96972.47;5087406;28;20541;-63
2021/11/26 02:00:44;;;;;;;10.57;4.88;;;;;;;-0.73;94.11;96844.47;5087123;28;20142;-63
2021/11/26 02:03:11;;;;;;;11.30;4.68;;;;;;;-0.52;92.69;96886.47;5087661;28;20051;-63
2021/11/26 02:05:39;;;;;;;10.25;5.00;;;;;;;-1.01;93.70;96807.53;5087030;28;20052;-64
2021/11/26 02:08:08;;;;;;;9.15;5.72;;;;;;;0.05;92.30;96956.53;5087313;28;20073;-63
2021/11/26 02:10:37;;;;;;;11.60;5.22;;;;;;;0.01;93.35;96955.53;5087085;28;20478;-63
2021/11/26 02:13:04;;;;;;;13.73;6.93;;;;;;;0.00;93.04;96951.22;5086800;28;20442;-62
2021/11/26 02:15:33;;;;;;;13.77;6.88;;;;;;;-0.28;92.11;96933.28;5086785;28;20048;-62
2021/11/26 02:18:00;;;;;;;20.65;9.10;;;;;;;-0.14;91.13;96953.13;5085689;28;20047;-62
2021/11/26 02:20:29;;;;;;;14.95;8.00;;;;;;;-0.86;90.28;96816.19;5086872;28;20048;-62
2021/11/26 02:22:57;;;;;;;20.77;8.07;;;;;;;-0.05;89.54;96943.94;5086810;28;20060;-62
2021/11/26 02:25:26;;;;;;;18.42;7.68;;;;;;;-0.21;90.33;96950.84;5085032;28;20048;-62
2021/11/26 02:28:01;;;;;;;17.95;7.28;;;;;;;-0.67;91.82;96881.31;5086588;28;20499;-62
2021/11/26 02:30:28;;;;;;;18.70;8.07;;;;;;;-0.16;92.46;96944.47;5086353;28;20056;-64
2021/11/26 02:32:58;;;;;;;18.08;8.23;;;;;;;-0.19;92.32;96936.91;5086749;28;20113;-63
2021/11/26 02:35:27;;;;;;;21.25;9.27;;;;;;;-0.17;93.21;96934.69;5086493;28;20059;-62
2021/11/26 02:37:55;;;;;;;23.98;10.02;;;;;;;-0.58;92.73;96885.75;5068658;28;20049;-63
2021/11/26 02:40:24;;;;;;;25.65;10.40;;;;;;;-0.29;92.73;96937.13;5066322;28;20053;-62
2021/11/26 02:42:51;;;;;;;27.75;12.48;;;;;;;-0.28;92.74;96933.28;5065501;28;20063;-63
2021/11/26 02:45:19;;;;;;;37.83;13.75;;;;;;;-0.20;92.95;96925.22;5065867;28;20463;-63
2021/11/26 02:47:47;;;;;;;29.05;10.77;;;;;;;-0.20;92.37;96921.69;5065937;28;20052;-63
2021/11/26 02:50:15;;;;;;;32.13;12.63;;;;;;;-0.14;92.55;96920.47;5064673;28;20056;-62
2021/11/26 02:52:44;;;;;;;22.67;8.95;;;;;;;-0.27;93.58;96913.13;5065782;28;20049;-63
2021/11/26 02:55:15;;;;;;;24.05;9.85;;;;;;;-2.02;93.09;96638.44;5065993;28;20515;-64
2021/11/26 02:57:42;;;;;;;22.15;8.40;;;;;;;-0.21;93.58;96918.19;5066407;28;20052;-63
2021/11/26 03:00:14;;;;;;;23.58;8.55;;;;;;;-0.47;92.45;96881.72;5065512;28;20056;-63
2021/11/26 03:02:41;;;;;;;21.40;8.75;;;;;;;-0.20;92.66;96924.41;5066008;28;20052;-62
2021/11/26 03:05:09;;;;;;;27.40;8.25;;;;;;;-0.21;91.11;96915.44;5065719;28;20044;-62
2021/11/26 03:07:36;;;;;;;21.55;9.82;;;;;;;-0.21;90.83;96911.91;5065666;28;20041;-63
2021/11/26 03:10:04;;;;;;;29.55;11.35;;;;;;;-0.39;91.00;96888.34;5064182;28;20114;-62
2021/11/26 03:12:32;;;;;;;29.40;12.18;;;;;;;-0.38;90.78;96911.75;5065676;28;20063;-62
2021/11/26 03:14:59;;;;;;;31.23;11.10;;;;;;;-0.35;91.53;96906.47;5065398;28;20469;-62
2021/11/26 03:17:26;;;;;;;23.90;8.63;;;;;;;-0.28;91.28;96914.22;5065673;28;20523;-63
2021/11/26 03:19:53;;;;;;;22.10;9.88;;;;;;;-0.60;91.43;96832.78;5065337;28;20426;-63
2021/11/26 03:22:20;;;;;;;21.02;8.25;;;;;;;-0.65;91.46;96890.78;5064265;28;20052;-63
2021/11/26 03:24:46;;;;;;;27.08;8.50;;;;;;;-0.30;92.46;96898.22;5064401;28;20064;-62
2021/11/26 03:27:13;;;;;;;19.85;7.93;;;;;;;-0.19;92.87;96893.38;5065449;28;20056;-62
2021/11/26 03:29:41;;;;;;;20.48;7.63;;;;;;;-0.69;92.02;96819.09;5065173;28;20064;-64
2021/11/26 03:32:07;;;;;;;26.95;8.90;;;;;;;-0.65;91.77;96832.88;5065206;28;20052;-63
2021/11/26 03:34:34;;;;;;;17.77;8.25;;;;;;;-0.20;91.42;96886.31;5065288;28;20048;-63
2021/11/26 03:37:01;;;;;;;21.65;9.02;;;;;;;-0.22;91.38;96873.00;5074792;28;20052;-64
2021/11/26 03:39:28;;;;;;;23.00;8.07;;;;;;;-0.31;91.96;96876.75;5083622;28;20056;-63
2021/11/26 03:41:54;;;;;;;16.77;6.50;;;;;;;-0.37;91.90;96869.81;5083199;28;20056;-62
2021/11/26 03:44:22;;;;;;;13.45;5.90;;;;;;;-0.36;92.47;96871.41;5085071;28;20051;-63
2021/11/26 03:46:48;;;;;;;18.77;6.30;;;;;;;-0.42;91.74;96861.75;5084945;28;20059;-63
2021/11/26 03:49:15;;;;;;;25.38;7.50;;;;;;;-0.58;90.39;96863.19;5085069;28;20055;-63
2021/11/26 03:51:42;;;;;;;17.65;5.95;;;;;;;-0.72;90.16;96846.88;5084743;28;20048;-63
2021/11/26 03:54:08;;;;;;;13.32;5.60;;;;;;;-1.09;89.86;96792.72;5085400;28;20052;-63
2021/11/26 03:56:35;;;;;;;21.23;6.28;;;;;;;-0.62;89.33;96867.63;5085189;28;20044;-63
2021/11/26 03:59:05;;;;;;;14.57;5.93;;;;;;;-1.09;90.60;96862.59;5083621;28;20071;-63
2021/11/26 04:01:33;;;;;;;15.07;6.05;;;;;;;-1.59;93.84;96864.28;5084849;28;20404;-63
2021/11/26 04:04:01;;;;;;;15.48;6.78;;;;;;;-1.35;93.40;96858.72;5085258;28;20514;-64
2021/11/26 04:06:28;;;;;;;17.58;5.63;;;;;;;-4.21;92.25;96406.25;5084534;28;20455;-63
2021/11/26 04:08:56;;;;;;;18.15;5.32;;;;;;;-1.29;92.41;96857.50;5083691;28;20058;-62
2021/11/26 04:11:23;;;;;;;15.48;5.40;;;;;;;-2.14;91.30;96711.38;5084651;28;20055;-64
2021/11/26 04:13:49;;;;;;;15.15;5.90;;;;;;;-1.21;91.78;96848.66;5083413;28;20054;-63
2021/11/26 04:16:17;;;;;;;14.48;5.70;;;;;;;-1.20;92.56;96866.59;5084863;28;20052;-63
2021/11/26 04:18:44;;;;;;;43.95;14.15;;;;;;;-1.12;92.72;96882.22;5084443;28;20052;-62
2021/11/26 04:21:12;;;;;;;44.20;14.98;;;;;;;-1.00;92.79;96860.78;5083484;28;20063;-62
2021/11/26 04:23:39;;;;;;;23.67;8.77;;;;;;;-3.48;91.90;96436.22;5084555;28;20048;-62
2021/11/26 04:26:06;;;;;;;30.00;11.80;;;;;;;-0.80;92.76;96865.81;5084988;28;20048;-64
2021/11/26 04:28:33;;;;;;;81.95;27.42;;;;;;;-1.21;93.41;96788.91;5083247;28;20432;-62
2021/11/26 04:31:01;;;;;;;32.75;12.70;;;;;;;-0.80;92.81;96854.94;4736668;28;10000924;-62
2021/11/26 04:33:28;;;;;;;24.15;12.93;;;;;;;-1.27;92.11;96796.34;4731911;28;10000892;-63
2021/11/26 04:35:55;;;;;;;17.35;8.52;;;;;;;-1.06;90.92;96856.53;5077741;28;20055;-62
2021/11/26 04:38:22;;;;;;;15.85;6.35;;;;;;;-1.47;92.67;96850.25;5064437;28;20048;-62
2021/11/26 04:40:49;;;;;;;19.20;7.25;;;;;;;-1.50;92.50;96823.69;5064463;28;20062;-63
2021/11/26 04:43:15;;;;;;;19.08;9.52;;;;;;;-1.25;91.17;96848.47;5063896;28;20131;-63
2021/11/26 04:45:42;;;;;;;25.13;10.73;;;;;;;-2.03;90.72;96731.78;5064211;28;20491;-64
2021/11/26 04:48:09;;;;;;;30.08;11.98;;;;;;;-1.34;90.63;96833.19;5063805;28;20135;-63
2021/11/26 04:50:36;;;;;;;33.67;13.98;;;;;;;-1.30;90.57;96834.19;5064402;28;20062;-63
2021/11/26 04:53:03;;;;;;;28.95;12.05;;;;;;;-1.42;90.21;96787.69;5066818;28;20522;-65
2021/11/26 04:55:30;;;;;;;33.88;12.68;;;;;;;-1.14;89.84;96824.63;5068470;28;20054;-63
2021/11/26 04:57:57;;;;;;;31.80;14.80;;;;;;;-1.08;90.45;96828.88;5068463;28;20071;-63
2021/11/26 05:00:24;;;;;;;35.45;14.88;;;;;;;-1.18;90.17;96807.31;5068211;28;20052;-63
2021/11/26 05:02:51;;;;;;;26.95;11.38;;;;;;;-0.99;89.85;96830.56;5066429;28;20048;-64
2021/11/26 05:05:18;;;;;;;21.67;10.35;;;;;;;-1.01;89.19;96832.00;5068343;28;20141;-63
2021/11/26 05:07:45;;;;;;;30.58;13.45;;;;;;;-1.10;89.46;96829.16;5067739;28;20519;-63
2021/11/26 05:10:14;;;;;;;27.13;13.27;;;;;;;-1.25;90.69;96802.31;5066675;28;20094;-63
2021/11/26 05:12:48;;;;;;;26.88;12.77;;;;;;;-1.21;91.08;96813.34;5067707;28;20048;-63
2021/11/26 05:15:15;;;;;;;42.90;17.25;;;;;;;-1.56;91.46;96742.31;5068108;28;20055;-63
2021/11/26 05:17:42;;;;;;;48.92;21.67;;;;;;;-0.90;91.82;96814.38;5067040;28;20443;-62
2021/11/26 05:20:10;;;;;;;54.42;23.05;;;;;;;-0.88;91.74;96821.09;5066424;28;20052;-63
2021/11/26 05:22:39;;;;;;;42.42;18.90;;;;;;;-1.69;92.04;96680.66;5065777;28;20844;-63
2021/11/26 05:25:06;;;;;;;49.25;21.40;;;;;;;-0.80;91.92;96838.63;5067754;28;20071;-62
2021/11/26 05:27:32;;;;;;;53.45;23.33;;;;;;;-1.39;91.94;96724.63;5067364;28;20078;-63
2021/11/26 05:29:59;;;;;;;87.60;34.15;;;;;;;-1.07;90.70;96770.69;5067329;28;20062;-63
2021/11/26 05:32:26;;;;;;;89.78;39.45;;;;;;;-0.65;90.68;96835.59;5067001;28;20513;-62
2021/11/26 05:34:53;;;;;;;105.60;44.55;;;;;;;-1.02;90.47;96770.56;5065880;28;20229;-63
2021/11/26 05:37:20;;;;;;;105.55;44.08;;;;;;;-0.74;90.42;96818.38;5078122;28;20074;-63
2021/11/26 05:39:46;;;;;;;105.43;41.90;;;;;;;-0.52;90.05;96865.50;5087640;28;20066;-62
2021/11/26 05:42:13;;;;;;;95.90;38.88;;;;;;;-0.51;90.16;96863.59;5087580;28;20052;-63
2021/11/26 05:44:40;;;;;;;69.63;28.85;;;;;;;-0.47;90.19;96853.69;5086109;28;20048;-63
2021/11/26 05:47:06;;;;;;;49.50;22.48;;;;;;;-0.20;88.28;96842.75;5056795;28;20060;-63
2021/11/26 05:49:33;;;;;;;41.25;19.55;;;;;;;-0.15;86.95;96834.47;5066922;28;20585;-63
2021/11/26 05:52:00;;;;;;;44.20;19.38;;;;;;;-0.12;87.41;96839.31;5059334;28;20581;-62
2021/11/26 05:54:27;;;;;;;27.50;14.10;;;;;;;-3.29;86.64;96304.31;5059523;28;20052;-64
2021/11/26 05:56:56;;;;;;;51.47;24.13;;;;;;;-0.01;87.02;96824.34;5066913;28;20087;-62
2021/11/26 05:59:23;;;;;;;55.10;23.83;;;;;;;-0.80;87.37;96687.19;5066755;28;20486;-62
2021/11/26 06:01:50;;;;;;;52.90;23.35;;;;;;;0.20;86.93;96825.50;5066464;28;20063;-64
2021/11/26 06:04:17;;;;;;;29.77;14.25;;;;;;;0.03;85.18;96800.88;5065489;28;20656;-64
2021/11/26 06:06:44;;;;;;;22.98;11.82;;;;;;;-0.13;84.38;96805.06;5066595;28;20145;-63
2021/11/26 06:09:11;;;;;;;31.73;13.13;;;;;;;-0.01;85.05;96808.03;5066441;28;20437;-63
2021/11/26 06:11:37;;;;;;;28.02;12.20;;;;;;;0.21;84.57;96816.19;5066431;28;20066;-63
2021/11/26 06:14:04;;;;;;;37.20;14.98;;;;;;;0.40;82.84;96813.25;5067638;28;20084;-66
2021/11/26 06:16:31;;;;;;;64.07;24.38;;;;;;;0.64;82.63;96803.66;5066758;28;20075;-66
2021/11/26 06:18:58;;;;;;;67.45;26.52;;;;;;;0.56;81.99;96762.72;5064800;28;20229;-65
2021/11/26 06:21:25;;;;;;;73.18;29.20;;;;;;;0.83;82.75;96801.50;5066642;28;20067;-65
2021/11/26 06:23:51;;;;;;;70.95;27.83;;;;;;;0.76;83.24;96757.53;5066650;28;20048;-65
2021/11/26 06:26:18;;;;;;;77.07;29.75;;;;;;;1.10;84.12;96814.94;5066356;28;20058;-66
2021/11/26 06:28:45;;;;;;;81.30;34.97;;;;;;;1.20;83.36;96781.88;5066456;28;20258;-66
2021/11/26 06:31:12;;;;;;;50.88;21.10;;;;;;;1.22;83.18;96801.47;5064947;28;20048;-65
2021/11/26 06:33:39;;;;;;;36.80;16.45;;;;;;;1.37;82.42;96781.97;5065821;28;20437;-64
2021/11/26 06:36:06;;;;;;;29.45;13.52;;;;;;;0.82;81.92;96709.91;5066247;28;20439;-66
2021/11/26 06:38:33;;;;;;;32.50;11.52;;;;;;;-0.01;87.44;96731.81;5083651;28;20584;-64
2021/11/26 06:40:59;;;;;;;28.50;11.50;;;;;;;-0.43;91.07;96745.91;5084658;28;20060;-66
2021/11/26 06:43:27;;;;;;;30.80;13.20;;;;;;;0.00;92.88;96734.22;5086862;28;20048;-64
2021/11/26 06:45:54;;;;;;;29.33;13.18;;;;;;;0.61;90.51;96748.97;5084931;28;20085;-66
2021/11/26 06:48:21;;;;;;;31.48;11.02;;;;;;;0.85;87.86;96742.03;5086599;28;20052;-63
2021/11/26 06:50:47;;;;;;;29.00;11.55;;;;;;;0.90;86.67;96739.13;5084719;28;20054;-63
2021/11/26 06:53:14;;;;;;;20.50;11.15;;;;;;;1.00;87.22;96718.94;5074806;28;20128;-62
2021/11/26 06:55:42;;;;;;;27.27;11.88;;;;;;;-1.72;85.67;96498.59;5050572;28;20053;-61
2021/11/26 06:58:09;;;;;;;37.83;15.93;;;;;;;1.45;84.36;96764.78;5074922;28;20080;-64
2021/11/26 07:00:36;;;;;;;52.10;20.30;;;;;;;1.03;84.18;96674.69;5061871;28;20516;-62
2021/11/26 07:03:03;;;;;;;47.15;17.90;;;;;;;1.74;83.99;96747.78;5060075;28;20080;-66
2021/11/26 07:05:30;;;;;;;50.47;19.25;;;;;;;1.75;83.63;96745.84;5028847;28;20395;-62
2021/11/26 07:07:57;;;;;;;71.10;26.40;;;;;;;1.96;82.47;96741.38;5056218;28;20040;-64
2021/11/26 07:10:24;;;;;;;68.60;24.50;;;;;;;1.31;82.56;96624.97;5053575;28;20044;-63
2021/11/26 07:12:50;;;;;;;45.80;20.35;;;;;;;1.43;81.11;96605.25;5055646;28;20049;-64
2021/11/26 07:15:18;;;;;;;44.50;18.85;;;;;;;2.41;80.93;96758.97;5057122;28;20139;-63
2021/11/26 07:17:46;;;;;;;46.50;20.55;;;;;;;1.29;80.67;96531.78;5050458;28;20064;-67
2021/11/26 07:20:15;;;;;;;48.38;21.98;;;;;;;2.48;80.25;96682.75;5053525;28;20057;-63
2021/11/26 07:22:42;;;;;;;51.20;21.80;;;;;;;2.15;79.09;96599.78;5053527;28;20061;-63
2021/11/26 07:25:10;;;;;;;46.67;19.65;;;;;;;2.70;79.31;96668.81;5052789;28;20053;-63
2021/11/26 07:27:37;;;;;;;29.83;14.20;;;;;;;1.69;78.67;96512.41;5055299;28;20060;-71
2021/11/26 07:30:07;;;;;;;38.72;15.73;;;;;;;2.17;79.40;96594.78;5054888;28;20063;-66
2021/11/26 07:32:33;;;;;;;34.10;14.05;;;;;;;3.02;79.52;96684.56;5047210;28;20395;-66
2021/11/26 07:35:00;;;;;;;41.35;18.02;;;;;;;3.42;79.66;96724.09;5057508;28;20051;-62
2021/11/26 07:37:27;;;;;;;48.28;21.23;;;;;;;3.55;78.76;96706.59;5056963;28;20051;-69
2021/11/26 07:39:54;;;;;;;50.47;22.83;;;;;;;3.66;78.33;96702.34;5046988;28;20061;-66
2021/11/26 07:42:21;;;;;;;119.07;41.70;;;;;;;2.33;78.10;96478.34;5058125;28;20063;-62
2021/11/26 07:44:48;;;;;;;102.38;40.80;;;;;;;2.97;78.81;96602.72;5050576;28;20581;-69
2021/11/26 07:47:17;;;;;;;73.60;33.25;;;;;;;3.19;78.61;96648.91;5049262;28;20632;-71
2021/11/26 07:49:45;;;;;;;77.95;31.13;;;;;;;3.61;79.98;96686.09;5051075;28;20431;-62
2021/11/26 07:52:12;;;;;;;80.55;37.67;;;;;;;2.81;80.05;96550.50;5050267;28;20050;-61
2021/11/26 07:54:39;;;;;;;107.70;44.75;;;;;;;3.60;80.55;96676.28;5046548;28;20160;-65
2021/11/26 07:57:06;;;;;;;73.22;34.72;;;;;;;3.44;81.38;96656.13;5053995;28;20049;-64
2021/11/26 07:59:33;;;;;;;115.50;50.92;;;;;;;3.69;80.87;96662.50;5053877;28;20036;-61
2021/11/26 08:02:00;;;;;;;121.38;55.40;;;;;;;3.23;80.45;96584.16;5052288;28;20083;-62
2021/11/26 08:04:27;;;;;;;83.55;37.75;;;;;;;2.64;80.48;96468.63;5047773;28;20072;-64
2021/11/26 08:06:54;;;;;;;70.68;31.17;;;;;;;3.42;80.69;96576.25;5043238;28;20049;-63
2021/11/26 08:09:21;;;;;;;79.05;36.75;;;;;;;3.86;79.54;96618.53;5047630;28;20127;-68
2021/11/26 08:11:50;;;;;;;51.47;28.33;;;;;;;3.78;78.99;96617.47;5056026;28;20048;-61
2021/11/26 08:14:18;;;;;;;64.28;29.80;;;;;;;4.21;78.64;96637.00;5052563;28;20047;-59
2021/11/26 08:16:47;;;;;;;64.07;30.65;;;;;;;4.11;79.12;96631.97;5050606;28;20048;-60
2021/11/26 08:19:13;;;;;;;56.65;28.63;;;;;;;3.48;79.07;96528.38;5053483;28;20061;-63
2021/11/26 08:21:41;;;;;;;55.95;31.08;;;;;;;4.25;79.39;96628.91;5051582;28;20053;-61
2021/11/26 08:24:10;;;;;;;69.97;32.75;;;;;;;4.27;79.94;96630.16;5047586;28;20062;-69
2021/11/26 08:26:40;;;;;;;64.00;30.60;;;;;;;2.36;79.74;96320.00;5057030;28;20063;-70
2021/11/26 08:29:09;;;;;;;47.05;23.08;;;;;;;2.34;85.40;96441.69;5053642;28;20544;-70
2021/11/26 08:31:36;;;;;;;45.50;22.92;;;;;;;3.28;88.36;96622.28;5049833;28;20082;-60
2021/11/26 08:34:05;;;;;;;49.65;23.35;;;;;;;3.14;88.74;96558.81;5051277;28;20053;-68
2021/11/26 08:36:32;;;;;;;56.38;24.55;;;;;;;2.74;88.68;96516.63;5060569;28;20036;-69
2021/11/26 08:38:59;;;;;;;48.22;25.40;;;;;;;2.98;90.15;96555.06;5062549;28;20055;-69
2021/11/26 08:41:26;;;;;;;50.42;24.15;;;;;;;3.54;88.74;96565.34;5053600;28;20053;-61
2021/11/26 08:43:53;;;;;;;53.95;22.88;;;;;;;2.56;92.08;96531.56;5055284;28;20438;-58
2021/11/26 08:46:20;;;;;;;38.25;20.23;;;;;;;2.05;90.21;96376.19;5057068;28;20045;-65
2021/11/26 08:48:47;;;;;;;37.47;19.13;;;;;;;2.89;89.91;96508.63;5055026;28;20057;-66
2021/11/26 08:51:14;;;;;;;37.70;18.10;;;;;;;-0.44;91.78;96028.94;5061969;28;20090;-63
2021/11/26 08:53:46;;;;;;;55.25;22.13;;;;;;;2.23;94.02;96522.44;5059303;28;20442;-59
2021/11/26 08:56:14;;;;;;;37.28;16.92;;;;;;;2.39;95.86;96537.13;5049965;28;20416;-68
2021/11/26 08:58:45;;;;;;;39.20;15.60;;;;;;;1.96;96.04;96533.81;5051464;28;20056;-62
2021/11/26 09:01:13;;;;;;;40.20;18.48;;;;;;;2.06;95.54;96408.63;5055876;28;20553;-62
2021/11/26 09:03:40;;;;;;;26.77;14.68;;;;;;;3.30;92.89;96513.28;5069624;28;20534;-68
2021/11/26 09:06:07;;;;;;;23.40;12.63;;;;;;;3.73;90.73;96527.31;5047491;28;20053;-66
2021/11/26 09:08:34;;;;;;;23.40;9.65;;;;;;;2.26;89.29;96346.94;5053932;28;20060;-71
2021/11/26 09:11:00;;;;;;;19.27;8.85;;;;;;;2.26;91.83;96375.03;5051055;28;20083;-65
2021/11/26 09:13:27;;;;;;;16.98;9.13;;;;;;;2.38;91.58;96368.84;5056938;28;20041;-68
2021/11/26 09:15:54;;;;;;;31.77;12.68;;;;;;;3.88;90.04;96484.75;5059847;28;20094;-64
2021/11/26 09:18:21;;;;;;;55.53;19.52;;;;;;;4.14;88.46;96494.25;5055745;28;20072;-63
2021/11/26 09:20:50;;;;;;;27.33;12.18;;;;;;;3.85;86.65;96408.75;5049540;28;20144;-60
2021/11/26 09:23:18;;;;;;;21.48;10.35;;;;;;;4.68;85.31;96498.31;5056756;28;20052;-60
2021/11/26 09:25:47;;;;;;;30.10;11.75;;;;;;;4.03;83.89;96372.53;5062696;28;20081;-65
2021/11/26 09:28:14;;;;;;;37.63;13.20;;;;;;;4.78;83.04;96457.84;5051424;28;20048;-67
2021/11/26 09:30:41;;;;;;;28.17;13.35;;;;;;;2.61;81.89;96070.22;5046635;28;20346;-70
2021/11/26 09:33:08;;;;;;;18.52;10.07;;;;;;;5.15;81.74;96443.66;5055851;28;20044;-64
2021/11/26 09:35:35;;;;;;;24.20;12.05;;;;;;;4.69;81.12;96368.25;5049619;28;20053;-65
2021/11/26 09:38:03;;;;;;;21.48;10.95;;;;;;;5.41;79.90;96421.19;5050085;28;20080;-68
2021/11/26 09:40:31;;;;;;;24.30;11.57;;;;;;;5.50;79.32;96408.88;5057102;28;20052;-62
2021/11/26 09:43:00;;;;;;;18.00;8.80;;;;;;;4.13;83.56;96321.94;5066013;28;20056;-62
2021/11/26 09:45:28;;;;;;;17.80;8.75;;;;;;;3.50;89.59;96331.75;5055294;28;20045;-64
2021/11/26 09:47:55;;;;;;;17.85;9.30;;;;;;;4.28;89.40;96376.84;5057301;28;20048;-65
2021/11/26 09:50:25;;;;;;;19.58;9.40;;;;;;;3.97;86.18;96278.03;5059543;28;20447;-67
2021/11/26 09:53:05;;;;;;;24.58;12.07;;;;;;;4.58;86.88;96337.00;5056672;28;20434;-68
2021/11/26 09:55:32;;;;;;;23.10;11.65;;;;;;;4.54;86.96;96284.00;5053914;28;20071;-62
2021/11/26 09:57:59;;;;;;;24.83;11.95;;;;;;;4.42;86.51;96221.00;5064669;28;20060;-65
2021/11/26 10:00:26;;;;;;;17.85;8.98;;;;;;;5.20;85.61;96302.59;5059443;28;20412;-67
2021/11/26 10:02:58;;;;;;;18.60;9.13;;;;;;;4.16;90.10;96215.19;5056169;28;20135;-64
2021/11/26 10:05:32;;;;;;;19.73;10.27;;;;;;;3.98;93.21;96229.53;5046601;28;20467;-63
2021/11/26 10:07:59;;;;;;;19.48;10.82;;;;;;;4.12;96.17;96288.28;5045383;28;20576;-68
2021/11/26 10:10:31;;;;;;;23.95;11.82;;;;;;;4.07;92.92;96191.81;5046225;28;20060;-65
2021/11/26 10:13:03;;;;;;;19.48;11.20;;;;;;;4.80;91.14;96279.97;5049783;28;20055;-68
2021/11/26 10:15:58;;;;;;;;;;;;;;;4.87;89.96;96274.69;5070711;28;20183;-60
2021/11/26 10:18:27;;;;;;;23.85;10.70;;;;;;;5.18;87.47;96277.44;5062835;28;19973;-67
2021/11/26 10:21:03;;;;;;;21.55;8.77;;;;;;;5.36;87.37;96275.94;5056884;28;20510;-69
2021/11/26 10:23:36;;;;;;;20.42;10.98;;;;;;;5.42;85.88;96280.00;5059273;28;20060;-65
2021/11/26 10:26:18;;;;;;;19.75;10.05;;;;;;;5.59;83.87;96307.09;5055533;28;20048;-69
2021/11/26 10:28:50;;;;;;;40.65;15.93;;;;;;;5.37;84.10;96294.81;5053329;28;20546;-63
2021/11/26 10:31:32;;;;;;;68.20;24.85;;;;;;;5.54;83.95;96334.81;5049254;28;20066;-68
2021/11/26 10:34:26;;;;;;;40.05;19.80;;;;;;;5.44;83.85;96321.63;5047453;28;20049;-68
2021/11/26 10:36:53;;;;;;;30.48;14.98;;;;;;;5.47;83.35;96299.75;5052667;28;20141;-69
2021/11/26 10:39:23;;;;;;;37.88;16.98;;;;;;;5.55;82.31;96286.97;5060964;28;20095;-70
2021/11/26 10:41:54;;;;;;;23.58;10.70;;;;;;;5.60;82.52;96281.22;5049873;28;20542;-62
2021/11/26 10:44:37;;;;;;;22.75;11.60;;;;;;;5.57;81.35;96268.19;5063205;28;20067;-67
2021/11/26 10:58:03;;;;;;;19.30;9.15;;;;;;;3.90;86.32;96088.84;5055617;28;20048;-70
2021/11/26 11:00:30;;;;;;;20.25;7.68;;;;;;;4.80;86.27;96238.81;5070949;28;20045;-61
2021/11/26 11:02:58;;;;;;;19.70;7.85;;;;;;;4.75;86.78;96217.94;5054367;28;20739;-66
2021/11/26 11:05:40;;;;;;;17.15;8.70;;;;;;;4.81;87.18;96166.34;5058412;28;20052;-64
2021/11/26 11:08:23;;;;;;;16.50;8.68;;;;;;;5.29;84.20;96201.63;5062640;28;20059;-70
2021/11/26 11:10:51;;;;;;;16.00;7.53;;;;;;;5.09;82.15;96167.06;5052859;28;20523;-70
2021/11/26 11:13:23;;;;;;;15.30;8.10;;;;;;;3.56;81.93;95895.09;5054403;28;20052;-62
2021/11/26 11:15:50;;;;;;;24.48;9.52;;;;;;;5.73;81.81;96230.50;5062719;28;20056;-68
2021/11/26 11:18:18;;;;;;;17.77;9.32;;;;;;;5.79;81.58;96227.13;5053372;28;20515;-62
2021/11/26 11:20:45;;;;;;;22.17;9.68;;;;;;;5.88;81.25;96226.97;5053475;28;20142;-65
2021/11/26 11:23:15;;;;;;;17.58;8.45;;;;;;;5.72;81.17;96195.94;5057907;28;20056;-67
2021/11/26 11:25:43;;;;;;;18.67;9.57;;;;;;;6.18;80.05;96230.72;5062657;28;20333;-59
2021/11/26 11:28:14;;;;;;;21.15;11.05;;;;;;;6.18;79.82;96209.50;5061021;28;20056;-66
2021/11/26 11:30:42;;;;;;;30.70;14.85;;;;;;;5.52;78.57;96088.00;5060223;28;20060;-66
2021/11/26 11:33:09;;;;;;;24.88;13.60;;;;;;;6.36;77.45;96209.88;5053419;28;20048;-64
2021/11/26 11:35:41;;;;;;;27.67;15.75;;;;;;;5.40;77.93;96046.97;5060771;28;20048;-64
2021/11/26 11:38:09;;;;;;;38.08;16.00;;;;;;;6.44;78.61;96167.59;5053798;28;20147;-58
2021/11/26 11:40:40;;;;;;;40.20;18.35;;;;;;;6.64;78.41;96169.13;5047096;28;20051;-65